sensor_id;sensor_type;location;lat;lon;timestamp;P1;durP1;ratioP1;P2;durP2;ratioP2
16173;SDS011;14031;50.158;8.626;2023-12-22T00:02:18;0.67;;;0.67;;
16173;SDS011;14031;50.158;8.626;2023-12-22T00:04:46;0.50;;;0.37;;
16173;SDS011;14031;50.158;8.626;2023-12-22T00:07:13;3.10;;;0.90;;
16173;SDS011;14031;50.158;8.626;2023-12-22T00:09:40;4.37;;;0.83;;
16173;SDS011;14031;50.158;8.626;2023-12-22T00:12:06;0.87;;;0.77;;
16173;SDS011;14031;50.158;8.626;2023-12-22T00:14:33;1.60;;;0.83;;
16173;SDS011;14031;50.158;8.626;2023-12-22T00:17:00;3.20;;;0.93;;
16173;SDS011;14031;50.158;8.626;2023-12-22T00:19:27;0.50;;;0.50;;
16173;SDS011;14031;50.158;8.626;2023-12-22T00:21:55;1.17;;;0.70;;
16173;SDS011;14031;50.158;8.626;2023-12-22T00:24:23;0.53;;;0.40;;
16173;SDS011;14031;50.158;8.626;2023-12-22T00:26:49;2.20;;;0.87;;
16173;SDS011;14031;50.158;8.626;2023-12-22T00:29:16;3.10;;;0.60;;
16173;SDS011;14031;50.158;8.626;2023-12-22T00:31:43;0.30;;;0.30;;
16173;SDS011;14031;50.158;8.626;2023-12-22T00:34:10;0.40;;;0.40;;
16173;SDS011;14031;50.158;8.626;2023-12-22T00:36:36;0.40;;;0.40;;
16173;SDS011;14031;50.158;8.626;2023-12-22T00:39:04;0.40;;;0.33;;
16173;SDS011;14031;50.158;8.626;2023-12-22T00:41:32;4.27;;;0.60;;
16173;SDS011;14031;50.158;8.626;2023-12-22T00:43:59;1.07;;;0.60;;
16173;SDS011;14031;50.158;8.626;2023-12-22T00:46:26;1.93;;;0.63;;
16173;SDS011;14031;50.158;8.626;2023-12-22T00:48:52;0.63;;;0.60;;
16173;SDS011;14031;50.158;8.626;2023-12-22T00:51:19;1.57;;;1.20;;
16173;SDS011;14031;50.158;8.626;2023-12-22T00:53:46;1.57;;;0.93;;
16173;SDS011;14031;50.158;8.626;2023-12-22T00:56:14;0.90;;;0.70;;
16173;SDS011;14031;50.158;8.626;2023-12-22T00:58:41;3.50;;;0.97;;
16173;SDS011;14031;50.158;8.626;2023-12-22T01:01:07;1.90;;;0.80;;
16173;SDS011;14031;50.158;8.626;2023-12-22T01:03:35;2.60;;;0.90;;
16173;SDS011;14031;50.158;8.626;2023-12-22T01:06:01;1.67;;;0.80;;
16173;SDS011;14031;50.158;8.626;2023-12-22T01:08:28;0.67;;;0.67;;
16173;SDS011;14031;50.158;8.626;2023-12-22T01:10:55;4.10;;;0.83;;
16173;SDS011;14031;50.158;8.626;2023-12-22T01:13:23;0.77;;;0.77;;
16173;SDS011;14031;50.158;8.626;2023-12-22T01:15:50;2.20;;;0.70;;
16173;SDS011;14031;50.158;8.626;2023-12-22T01:18:16;2.37;;;1.20;;
16173;SDS011;14031;50.158;8.626;2023-12-22T01:20:43;2.10;;;0.80;;
16173;SDS011;14031;50.158;8.626;2023-12-22T01:23:10;2.53;;;0.93;;
16173;SDS011;14031;50.158;8.626;2023-12-22T01:25:37;2.63;;;0.50;;
16173;SDS011;14031;50.158;8.626;2023-12-22T01:28:03;1.30;;;0.70;;
16173;SDS011;14031;50.158;8.626;2023-12-22T01:30:32;0.40;;;0.33;;
16173;SDS011;14031;50.158;8.626;2023-12-22T01:32:59;1.07;;;0.40;;
16173;SDS011;14031;50.158;8.626;2023-12-22T01:35:25;0.30;;;0.30;;
16173;SDS011;14031;50.158;8.626;2023-12-22T01:37:53;0.40;;;0.40;;
16173;SDS011;14031;50.158;8.626;2023-12-22T01:40:21;0.30;;;0.30;;
16173;SDS011;14031;50.158;8.626;2023-12-22T01:42:48;0.17;;;0.17;;
16173;SDS011;14031;50.158;8.626;2023-12-22T01:45:15;0.27;;;0.27;;
16173;SDS011;14031;50.158;8.626;2023-12-22T01:47:43;0.40;;;0.40;;
16173;SDS011;14031;50.158;8.626;2023-12-22T01:50:12;0.20;;;0.20;;
16173;SDS011;14031;50.158;8.626;2023-12-22T01:52:40;0.13;;;0.13;;
16173;SDS011;14031;50.158;8.626;2023-12-22T01:55:08;0.30;;;0.30;;
16173;SDS011;14031;50.158;8.626;2023-12-22T01:57:37;0.30;;;0.30;;
16173;SDS011;14031;50.158;8.626;2023-12-22T02:00:06;0.60;;;0.33;;
16173;SDS011;14031;50.158;8.626;2023-12-22T02:02:33;1.17;;;0.60;;
16173;SDS011;14031;50.158;8.626;2023-12-22T02:05:02;0.20;;;0.20;;
16173;SDS011;14031;50.158;8.626;2023-12-22T02:07:29;0.40;;;0.40;;
16173;SDS011;14031;50.158;8.626;2023-12-22T02:09:56;0.20;;;0.20;;
16173;SDS011;14031;50.158;8.626;2023-12-22T02:12:22;0.20;;;0.20;;
16173;SDS011;14031;50.158;8.626;2023-12-22T02:14:49;0.20;;;0.20;;
16173;SDS011;14031;50.158;8.626;2023-12-22T02:17:18;0.20;;;0.20;;
16173;SDS011;14031;50.158;8.626;2023-12-22T02:19:50;0.67;;;0.30;;
16173;SDS011;14031;50.158;8.626;2023-12-22T02:22:18;0.30;;;0.30;;
16173;SDS011;14031;50.158;8.626;2023-12-22T02:24:46;0.17;;;0.17;;
16173;SDS011;14031;50.158;8.626;2023-12-22T02:27:17;0.70;;;0.40;;
16173;SDS011;14031;50.158;8.626;2023-12-22T02:29:51;0.40;;;0.40;;
16173;SDS011;14031;50.158;8.626;2023-12-22T02:32:25;0.27;;;0.27;;
16173;SDS011;14031;50.158;8.626;2023-12-22T02:34:56;0.40;;;0.30;;
16173;SDS011;14031;50.158;8.626;2023-12-22T02:37:23;2.10;;;0.50;;
16173;SDS011;14031;50.158;8.626;2023-12-22T02:39:53;1.50;;;0.50;;
16173;SDS011;14031;50.158;8.626;2023-12-22T02:42:20;0.40;;;0.40;;
16173;SDS011;14031;50.158;8.626;2023-12-22T02:44:54;1.13;;;0.60;;
16173;SDS011;14031;50.158;8.626;2023-12-22T02:47:22;0.67;;;0.50;;
16173;SDS011;14031;50.158;8.626;2023-12-22T02:49:48;1.93;;;0.40;;
16173;SDS011;14031;50.158;8.626;2023-12-22T02:52:15;3.90;;;0.37;;
16173;SDS011;14031;50.158;8.626;2023-12-22T02:54:42;2.40;;;0.50;;
16173;SDS011;14031;50.158;8.626;2023-12-22T02:57:10;0.43;;;0.43;;
16173;SDS011;14031;50.158;8.626;2023-12-22T02:59:37;0.30;;;0.30;;
16173;SDS011;14031;50.158;8.626;2023-12-22T03:02:03;0.30;;;0.30;;
16173;SDS011;14031;50.158;8.626;2023-12-22T03:04:30;1.70;;;0.50;;
16173;SDS011;14031;50.158;8.626;2023-12-22T03:06:57;1.80;;;0.47;;
16173;SDS011;14031;50.158;8.626;2023-12-22T03:09:24;0.40;;;0.40;;
16173;SDS011;14031;50.158;8.626;2023-12-22T03:11:51;0.50;;;0.40;;
16173;SDS011;14031;50.158;8.626;2023-12-22T03:14:21;0.60;;;0.60;;
16173;SDS011;14031;50.158;8.626;2023-12-22T03:16:47;0.40;;;0.40;;
16173;SDS011;14031;50.158;8.626;2023-12-22T03:19:14;1.20;;;0.80;;
16173;SDS011;14031;50.158;8.626;2023-12-22T03:21:41;0.73;;;0.73;;
16173;SDS011;14031;50.158;8.626;2023-12-22T03:24:07;2.80;;;0.80;;
16173;SDS011;14031;50.158;8.626;2023-12-22T03:26:34;1.43;;;1.00;;
16173;SDS011;14031;50.158;8.626;2023-12-22T03:29:01;0.70;;;0.70;;
16173;SDS011;14031;50.158;8.626;2023-12-22T03:31:29;0.90;;;0.90;;
16173;SDS011;14031;50.158;8.626;2023-12-22T03:33:56;1.53;;;0.70;;
16173;SDS011;14031;50.158;8.626;2023-12-22T03:36:22;1.33;;;1.03;;
16173;SDS011;14031;50.158;8.626;2023-12-22T03:38:49;2.47;;;0.90;;
16173;SDS011;14031;50.158;8.626;2023-12-22T03:41:16;1.07;;;0.97;;
16173;SDS011;14031;50.158;8.626;2023-12-22T03:43:42;1.97;;;1.13;;
16173;SDS011;14031;50.158;8.626;2023-12-22T03:46:09;2.50;;;1.93;;
16173;SDS011;14031;50.158;8.626;2023-12-22T03:48:37;3.77;;;1.83;;
16173;SDS011;14031;50.158;8.626;2023-12-22T03:51:04;4.20;;;1.47;;
16173;SDS011;14031;50.158;8.626;2023-12-22T03:53:31;3.30;;;1.63;;
16173;SDS011;14031;50.158;8.626;2023-12-22T03:55:57;2.30;;;1.53;;
16173;SDS011;14031;50.158;8.626;2023-12-22T03:58:24;1.87;;;1.30;;
16173;SDS011;14031;50.158;8.626;2023-12-22T04:00:51;5.27;;;1.97;;
16173;SDS011;14031;50.158;8.626;2023-12-22T04:03:18;2.77;;;1.67;;
16173;SDS011;14031;50.158;8.626;2023-12-22T04:05:46;3.63;;;1.50;;
16173;SDS011;14031;50.158;8.626;2023-12-22T04:08:12;7.43;;;2.03;;
16173;SDS011;14031;50.158;8.626;2023-12-22T04:10:40;7.20;;;1.63;;
16173;SDS011;14031;50.158;8.626;2023-12-22T04:13:08;6.37;;;2.00;;
16173;SDS011;14031;50.158;8.626;2023-12-22T04:15:35;4.60;;;2.10;;
16173;SDS011;14031;50.158;8.626;2023-12-22T04:18:02;4.93;;;2.27;;
16173;SDS011;14031;50.158;8.626;2023-12-22T04:20:29;6.07;;;2.20;;
16173;SDS011;14031;50.158;8.626;2023-12-22T04:22:58;10.50;;;2.10;;
16173;SDS011;14031;50.158;8.626;2023-12-22T04:25:24;6.07;;;2.17;;
16173;SDS011;14031;50.158;8.626;2023-12-22T04:27:51;8.70;;;2.77;;
16173;SDS011;14031;50.158;8.626;2023-12-22T04:30:18;7.53;;;3.00;;
16173;SDS011;14031;50.158;8.626;2023-12-22T04:32:45;9.03;;;2.53;;
16173;SDS011;14031;50.158;8.626;2023-12-22T04:35:11;5.83;;;2.30;;
16173;SDS011;14031;50.158;8.626;2023-12-22T04:37:38;6.63;;;2.10;;
16173;SDS011;14031;50.158;8.626;2023-12-22T04:40:07;11.30;;;2.10;;
16173;SDS011;14031;50.158;8.626;2023-12-22T04:42:34;6.07;;;2.50;;
16173;SDS011;14031;50.158;8.626;2023-12-22T04:45:01;5.73;;;1.93;;
16173;SDS011;14031;50.158;8.626;2023-12-22T04:47:27;5.87;;;1.97;;
16173;SDS011;14031;50.158;8.626;2023-12-22T04:49:54;5.93;;;2.00;;
16173;SDS011;14031;50.158;8.626;2023-12-22T04:52:21;5.63;;;2.37;;
16173;SDS011;14031;50.158;8.626;2023-12-22T04:54:49;10.33;;;1.80;;
16173;SDS011;14031;50.158;8.626;2023-12-22T04:57:17;6.60;;;2.47;;
16173;SDS011;14031;50.158;8.626;2023-12-22T04:59:43;8.93;;;2.40;;
16173;SDS011;14031;50.158;8.626;2023-12-22T05:02:10;9.90;;;2.23;;
16173;SDS011;14031;50.158;8.626;2023-12-22T05:04:37;6.60;;;2.40;;
16173;SDS011;14031;50.158;8.626;2023-12-22T05:07:03;9.43;;;2.47;;
16173;SDS011;14031;50.158;8.626;2023-12-22T05:09:32;10.00;;;2.60;;
16173;SDS011;14031;50.158;8.626;2023-12-22T05:11:59;9.93;;;2.07;;
16173;SDS011;14031;50.158;8.626;2023-12-22T05:14:27;6.87;;;2.00;;
16173;SDS011;14031;50.158;8.626;2023-12-22T05:16:54;9.70;;;2.60;;
16173;SDS011;14031;50.158;8.626;2023-12-22T05:19:22;11.07;;;2.00;;
16173;SDS011;14031;50.158;8.626;2023-12-22T05:21:48;5.33;;;1.83;;
16173;SDS011;14031;50.158;8.626;2023-12-22T05:24:17;9.83;;;1.93;;
16173;SDS011;14031;50.158;8.626;2023-12-22T05:26:44;8.20;;;2.07;;
16173;SDS011;14031;50.158;8.626;2023-12-22T05:29:11;11.20;;;2.33;;
16173;SDS011;14031;50.158;8.626;2023-12-22T05:31:39;7.17;;;1.80;;
16173;SDS011;14031;50.158;8.626;2023-12-22T05:34:06;4.50;;;1.90;;
16173;SDS011;14031;50.158;8.626;2023-12-22T05:36:33;10.73;;;1.80;;
16173;SDS011;14031;50.158;8.626;2023-12-22T05:38:59;5.00;;;1.57;;
16173;SDS011;14031;50.158;8.626;2023-12-22T05:41:26;6.30;;;2.00;;
16173;SDS011;14031;50.158;8.626;2023-12-22T05:43:53;6.53;;;1.60;;
16173;SDS011;14031;50.158;8.626;2023-12-22T05:46:20;4.10;;;1.83;;
16173;SDS011;14031;50.158;8.626;2023-12-22T05:48:48;7.33;;;2.00;;
16173;SDS011;14031;50.158;8.626;2023-12-22T05:51:15;8.33;;;3.00;;
16173;SDS011;14031;50.158;8.626;2023-12-22T05:53:42;5.40;;;2.10;;
16173;SDS011;14031;50.158;8.626;2023-12-22T05:56:16;6.73;;;2.70;;
16173;SDS011;14031;50.158;8.626;2023-12-22T05:58:44;8.23;;;2.03;;
16173;SDS011;14031;50.158;8.626;2023-12-22T06:01:13;10.43;;;2.47;;
16173;SDS011;14031;50.158;8.626;2023-12-22T06:03:41;3.70;;;2.07;;
16173;SDS011;14031;50.158;8.626;2023-12-22T06:06:09;7.00;;;1.83;;
16173;SDS011;14031;50.158;8.626;2023-12-22T06:08:36;13.53;;;2.00;;
16173;SDS011;14031;50.158;8.626;2023-12-22T06:11:03;4.13;;;1.83;;
16173;SDS011;14031;50.158;8.626;2023-12-22T06:13:30;5.47;;;2.23;;
16173;SDS011;14031;50.158;8.626;2023-12-22T06:15:56;7.43;;;2.17;;
16173;SDS011;14031;50.158;8.626;2023-12-22T06:18:24;6.83;;;1.97;;
16173;SDS011;14031;50.158;8.626;2023-12-22T06:20:51;7.33;;;2.07;;
16173;SDS011;14031;50.158;8.626;2023-12-22T06:23:20;7.93;;;1.73;;
16173;SDS011;14031;50.158;8.626;2023-12-22T06:25:47;8.67;;;2.20;;
16173;SDS011;14031;50.158;8.626;2023-12-22T06:28:14;3.00;;;2.13;;
16173;SDS011;14031;50.158;8.626;2023-12-22T06:30:42;3.13;;;2.13;;
16173;SDS011;14031;50.158;8.626;2023-12-22T06:33:10;9.77;;;1.70;;
16173;SDS011;14031;50.158;8.626;2023-12-22T06:35:37;5.80;;;1.50;;
16173;SDS011;14031;50.158;8.626;2023-12-22T06:38:05;5.53;;;1.90;;
16173;SDS011;14031;50.158;8.626;2023-12-22T06:40:33;5.53;;;2.00;;
16173;SDS011;14031;50.158;8.626;2023-12-22T06:43:01;4.37;;;1.70;;
16173;SDS011;14031;50.158;8.626;2023-12-22T06:45:27;5.30;;;2.50;;
16173;SDS011;14031;50.158;8.626;2023-12-22T06:47:54;10.63;;;2.17;;
16173;SDS011;14031;50.158;8.626;2023-12-22T06:50:21;6.17;;;1.70;;
16173;SDS011;14031;50.158;8.626;2023-12-22T06:52:48;3.60;;;1.90;;
16173;SDS011;14031;50.158;8.626;2023-12-22T06:55:16;5.33;;;1.83;;
16173;SDS011;14031;50.158;8.626;2023-12-22T06:57:44;9.07;;;2.17;;
16173;SDS011;14031;50.158;8.626;2023-12-22T07:00:11;6.60;;;1.73;;
16173;SDS011;14031;50.158;8.626;2023-12-22T07:02:38;7.50;;;1.87;;
16173;SDS011;14031;50.158;8.626;2023-12-22T07:08:03;6.67;;;1.70;;
16173;SDS011;14031;50.158;8.626;2023-12-22T07:10:31;8.23;;;2.03;;
16173;SDS011;14031;50.158;8.626;2023-12-22T07:12:59;2.70;;;1.63;;
16173;SDS011;14031;50.158;8.626;2023-12-22T07:15:26;5.27;;;1.63;;
16173;SDS011;14031;50.158;8.626;2023-12-22T07:17:53;4.20;;;1.23;;
16173;SDS011;14031;50.158;8.626;2023-12-22T07:20:20;4.30;;;1.60;;
16173;SDS011;14031;50.158;8.626;2023-12-22T07:22:47;3.17;;;1.47;;
16173;SDS011;14031;50.158;8.626;2023-12-22T07:25:13;7.33;;;1.63;;
16173;SDS011;14031;50.158;8.626;2023-12-22T07:27:40;3.87;;;1.60;;
16173;SDS011;14031;50.158;8.626;2023-12-22T07:30:09;4.13;;;1.80;;
16173;SDS011;14031;50.158;8.626;2023-12-22T07:32:40;6.87;;;2.13;;
16173;SDS011;14031;50.158;8.626;2023-12-22T07:35:09;3.00;;;1.27;;
16173;SDS011;14031;50.158;8.626;2023-12-22T07:37:35;9.07;;;2.17;;
16173;SDS011;14031;50.158;8.626;2023-12-22T07:40:02;3.87;;;1.73;;
16173;SDS011;14031;50.158;8.626;2023-12-22T07:42:29;6.73;;;1.70;;
16173;SDS011;14031;50.158;8.626;2023-12-22T07:44:56;5.60;;;1.60;;
16173;SDS011;14031;50.158;8.626;2023-12-22T07:47:25;3.83;;;1.63;;
16173;SDS011;14031;50.158;8.626;2023-12-22T07:49:51;10.80;;;2.33;;
16173;SDS011;14031;50.158;8.626;2023-12-22T07:52:18;5.00;;;2.40;;
16173;SDS011;14031;50.158;8.626;2023-12-22T07:54:45;8.67;;;2.00;;
16173;SDS011;14031;50.158;8.626;2023-12-22T07:57:12;12.60;;;2.37;;
16173;SDS011;14031;50.158;8.626;2023-12-22T07:59:39;11.07;;;2.03;;
16173;SDS011;14031;50.158;8.626;2023-12-22T08:02:05;5.43;;;1.90;;
16173;SDS011;14031;50.158;8.626;2023-12-22T08:04:33;4.80;;;1.67;;
16173;SDS011;14031;50.158;8.626;2023-12-22T08:07:00;4.83;;;1.83;;
16173;SDS011;14031;50.158;8.626;2023-12-22T08:09:28;10.07;;;2.00;;
16173;SDS011;14031;50.158;8.626;2023-12-22T08:11:54;4.50;;;1.57;;
16173;SDS011;14031;50.158;8.626;2023-12-22T08:14:21;5.10;;;1.60;;
16173;SDS011;14031;50.158;8.626;2023-12-22T08:16:48;3.70;;;1.80;;
16173;SDS011;14031;50.158;8.626;2023-12-22T08:19:15;8.53;;;1.57;;
16173;SDS011;14031;50.158;8.626;2023-12-22T08:21:43;7.47;;;1.87;;
16173;SDS011;14031;50.158;8.626;2023-12-22T08:24:10;2.47;;;1.87;;
16173;SDS011;14031;50.158;8.626;2023-12-22T08:26:37;4.70;;;1.90;;
16173;SDS011;14031;50.158;8.626;2023-12-22T08:29:04;4.73;;;1.57;;
16173;SDS011;14031;50.158;8.626;2023-12-22T08:31:33;3.97;;;1.83;;
16173;SDS011;14031;50.158;8.626;2023-12-22T08:34:00;4.17;;;1.30;;
16173;SDS011;14031;50.158;8.626;2023-12-22T08:36:26;3.10;;;1.47;;
16173;SDS011;14031;50.158;8.626;2023-12-22T08:38:54;5.33;;;1.67;;
16173;SDS011;14031;50.158;8.626;2023-12-22T08:41:21;4.13;;;1.53;;
16173;SDS011;14031;50.158;8.626;2023-12-22T08:43:48;5.23;;;2.03;;
16173;SDS011;14031;50.158;8.626;2023-12-22T08:46:15;5.70;;;1.17;;
16173;SDS011;14031;50.158;8.626;2023-12-22T08:48:43;2.57;;;1.33;;
16173;SDS011;14031;50.158;8.626;2023-12-22T08:51:10;2.17;;;0.97;;
16173;SDS011;14031;50.158;8.626;2023-12-22T08:53:36;2.03;;;0.87;;
16173;SDS011;14031;50.158;8.626;2023-12-22T08:56:05;2.40;;;0.80;;
16173;SDS011;14031;50.158;8.626;2023-12-22T08:58:32;3.10;;;0.87;;
16173;SDS011;14031;50.158;8.626;2023-12-22T09:00:59;0.90;;;0.80;;
16173;SDS011;14031;50.158;8.626;2023-12-22T09:03:26;1.80;;;0.80;;
16173;SDS011;14031;50.158;8.626;2023-12-22T09:05:53;2.63;;;0.90;;
16173;SDS011;14031;50.158;8.626;2023-12-22T09:08:20;2.27;;;0.90;;
16173;SDS011;14031;50.158;8.626;2023-12-22T09:10:46;2.20;;;0.90;;
16173;SDS011;14031;50.158;8.626;2023-12-22T09:13:16;3.27;;;1.17;;
16173;SDS011;14031;50.158;8.626;2023-12-22T09:15:42;1.27;;;0.70;;
16173;SDS011;14031;50.158;8.626;2023-12-22T09:18:11;4.03;;;1.17;;
16173;SDS011;14031;50.158;8.626;2023-12-22T09:20:38;3.83;;;1.10;;
16173;SDS011;14031;50.158;8.626;2023-12-22T09:23:06;2.63;;;1.50;;
16173;SDS011;14031;50.158;8.626;2023-12-22T09:25:33;1.97;;;1.07;;
16173;SDS011;14031;50.158;8.626;2023-12-22T09:27:59;3.00;;;1.20;;
16173;SDS011;14031;50.158;8.626;2023-12-22T09:30:28;1.00;;;1.00;;
16173;SDS011;14031;50.158;8.626;2023-12-22T09:32:54;1.13;;;0.83;;
16173;SDS011;14031;50.158;8.626;2023-12-22T09:35:21;1.50;;;1.10;;
16173;SDS011;14031;50.158;8.626;2023-12-22T09:37:49;1.90;;;1.00;;
16173;SDS011;14031;50.158;8.626;2023-12-22T09:40:16;1.27;;;0.80;;
16173;SDS011;14031;50.158;8.626;2023-12-22T09:42:43;1.20;;;0.90;;
16173;SDS011;14031;50.158;8.626;2023-12-22T09:45:11;1.17;;;1.07;;
16173;SDS011;14031;50.158;8.626;2023-12-22T09:47:40;1.17;;;1.07;;
16173;SDS011;14031;50.158;8.626;2023-12-22T09:50:09;1.73;;;1.03;;
16173;SDS011;14031;50.158;8.626;2023-12-22T09:52:36;2.20;;;1.17;;
16173;SDS011;14031;50.158;8.626;2023-12-22T09:55:06;4.13;;;1.40;;
16173;SDS011;14031;50.158;8.626;2023-12-22T09:57:35;1.57;;;1.43;;
16173;SDS011;14031;50.158;8.626;2023-12-22T10:00:03;3.40;;;2.37;;
16173;SDS011;14031;50.158;8.626;2023-12-22T10:02:32;2.80;;;1.50;;
16173;SDS011;14031;50.158;8.626;2023-12-22T10:05:01;1.57;;;1.30;;
16173;SDS011;14031;50.158;8.626;2023-12-22T10:07:29;2.50;;;1.37;;
16173;SDS011;14031;50.158;8.626;2023-12-22T10:09:57;2.20;;;2.00;;
16173;SDS011;14031;50.158;8.626;2023-12-22T10:12:25;2.00;;;1.40;;
16173;SDS011;14031;50.158;8.626;2023-12-22T10:14:55;1.77;;;1.60;;
16173;SDS011;14031;50.158;8.626;2023-12-22T10:17:23;3.50;;;1.60;;
16173;SDS011;14031;50.158;8.626;2023-12-22T10:19:50;2.23;;;1.53;;
16173;SDS011;14031;50.158;8.626;2023-12-22T10:22:18;2.40;;;1.70;;
16173;SDS011;14031;50.158;8.626;2023-12-22T10:24:48;4.07;;;1.87;;
16173;SDS011;14031;50.158;8.626;2023-12-22T10:27:16;4.87;;;1.70;;
16173;SDS011;14031;50.158;8.626;2023-12-22T10:29:47;5.73;;;1.83;;
16173;SDS011;14031;50.158;8.626;2023-12-22T10:32:14;5.13;;;1.90;;
16173;SDS011;14031;50.158;8.626;2023-12-22T10:34:41;2.03;;;1.63;;
16173;SDS011;14031;50.158;8.626;2023-12-22T10:37:08;1.93;;;1.70;;
16173;SDS011;14031;50.158;8.626;2023-12-22T10:39:37;4.07;;;1.87;;
16173;SDS011;14031;50.158;8.626;2023-12-22T10:42:04;5.47;;;2.20;;
16173;SDS011;14031;50.158;8.626;2023-12-22T10:44:31;5.93;;;2.27;;
16173;SDS011;14031;50.158;8.626;2023-12-22T10:46:58;4.73;;;2.20;;
16173;SDS011;14031;50.158;8.626;2023-12-22T10:49:26;6.07;;;2.40;;
16173;SDS011;14031;50.158;8.626;2023-12-22T10:51:53;3.47;;;2.37;;
16173;SDS011;14031;50.158;8.626;2023-12-22T10:54:20;6.50;;;2.20;;
16173;SDS011;14031;50.158;8.626;2023-12-22T10:56:48;10.10;;;2.17;;
16173;SDS011;14031;50.158;8.626;2023-12-22T10:59:16;9.17;;;3.13;;
16173;SDS011;14031;50.158;8.626;2023-12-22T11:01:44;9.27;;;2.87;;
16173;SDS011;14031;50.158;8.626;2023-12-22T11:04:16;8.07;;;2.57;;
16173;SDS011;14031;50.158;8.626;2023-12-22T11:06:44;12.60;;;2.83;;
16173;SDS011;14031;50.158;8.626;2023-12-22T11:09:15;4.23;;;2.23;;
16173;SDS011;14031;50.158;8.626;2023-12-22T11:11:43;5.47;;;2.17;;
16173;SDS011;14031;50.158;8.626;2023-12-22T11:14:13;6.73;;;2.30;;
16173;SDS011;14031;50.158;8.626;2023-12-22T11:16:41;9.80;;;2.87;;
16173;SDS011;14031;50.158;8.626;2023-12-22T11:19:12;6.90;;;2.33;;
16173;SDS011;14031;50.158;8.626;2023-12-22T11:21:40;5.70;;;2.43;;
16173;SDS011;14031;50.158;8.626;2023-12-22T11:24:08;7.17;;;2.47;;
16173;SDS011;14031;50.158;8.626;2023-12-22T11:26:38;13.93;;;2.57;;
16173;SDS011;14031;50.158;8.626;2023-12-22T11:29:08;11.60;;;2.53;;
16173;SDS011;14031;50.158;8.626;2023-12-22T11:31:37;6.17;;;2.23;;
16173;SDS011;14031;50.158;8.626;2023-12-22T11:34:06;6.27;;;2.43;;
16173;SDS011;14031;50.158;8.626;2023-12-22T11:36:34;6.57;;;2.57;;
16173;SDS011;14031;50.158;8.626;2023-12-22T11:39:04;5.23;;;2.10;;
16173;SDS011;14031;50.158;8.626;2023-12-22T11:41:32;5.70;;;2.07;;
16173;SDS011;14031;50.158;8.626;2023-12-22T11:44:01;3.93;;;1.80;;
16173;SDS011;14031;50.158;8.626;2023-12-22T11:46:30;6.10;;;2.07;;
16173;SDS011;14031;50.158;8.626;2023-12-22T11:49:00;6.93;;;2.33;;
16173;SDS011;14031;50.158;8.626;2023-12-22T11:51:31;5.03;;;2.20;;
16173;SDS011;14031;50.158;8.626;2023-12-22T11:53:59;4.57;;;2.00;;
16173;SDS011;14031;50.158;8.626;2023-12-22T11:56:26;4.67;;;2.00;;
16173;SDS011;14031;50.158;8.626;2023-12-22T11:58:54;9.43;;;2.40;;
16173;SDS011;14031;50.158;8.626;2023-12-22T12:01:24;6.33;;;1.97;;
16173;SDS011;14031;50.158;8.626;2023-12-22T12:03:53;5.57;;;1.93;;
16173;SDS011;14031;50.158;8.626;2023-12-22T12:06:30;4.63;;;2.20;;
16173;SDS011;14031;50.158;8.626;2023-12-22T12:08:59;2.13;;;1.93;;
16173;SDS011;14031;50.158;8.626;2023-12-22T12:14:29;7.33;;;2.23;;
16173;SDS011;14031;50.158;8.626;2023-12-22T12:16:58;3.27;;;1.93;;
16173;SDS011;14031;50.158;8.626;2023-12-22T12:19:30;6.47;;;1.67;;
16173;SDS011;14031;50.158;8.626;2023-12-22T12:21:58;4.83;;;1.23;;
16173;SDS011;14031;50.158;8.626;2023-12-22T12:24:24;3.50;;;1.50;;
16173;SDS011;14031;50.158;8.626;2023-12-22T12:26:51;3.30;;;1.93;;
16173;SDS011;14031;50.158;8.626;2023-12-22T12:29:19;2.90;;;1.70;;
16173;SDS011;14031;50.158;8.626;2023-12-22T12:31:47;2.03;;;1.47;;
16173;SDS011;14031;50.158;8.626;2023-12-22T12:34:14;3.00;;;1.53;;
16173;SDS011;14031;50.158;8.626;2023-12-22T12:36:42;8.43;;;1.70;;
16173;SDS011;14031;50.158;8.626;2023-12-22T12:39:14;3.80;;;1.70;;
16173;SDS011;14031;50.158;8.626;2023-12-22T12:41:42;2.07;;;1.10;;
16173;SDS011;14031;50.158;8.626;2023-12-22T12:44:10;2.03;;;1.50;;
16173;SDS011;14031;50.158;8.626;2023-12-22T12:46:37;3.60;;;1.53;;
16173;SDS011;14031;50.158;8.626;2023-12-22T12:49:05;1.57;;;1.30;;
16173;SDS011;14031;50.158;8.626;2023-12-22T12:51:35;1.20;;;1.10;;
16173;SDS011;14031;50.158;8.626;2023-12-22T12:54:03;2.20;;;1.00;;
16173;SDS011;14031;50.158;8.626;2023-12-22T12:56:37;2.40;;;1.10;;
16173;SDS011;14031;50.158;8.626;2023-12-22T12:59:06;2.87;;;1.27;;
16173;SDS011;14031;50.158;8.626;2023-12-22T13:01:37;1.43;;;1.00;;
16173;SDS011;14031;50.158;8.626;2023-12-22T13:04:04;3.77;;;1.07;;
16173;SDS011;14031;50.158;8.626;2023-12-22T13:06:31;1.77;;;1.07;;
16173;SDS011;14031;50.158;8.626;2023-12-22T13:08:58;6.00;;;1.07;;
16173;SDS011;14031;50.158;8.626;2023-12-22T13:11:26;3.97;;;1.27;;
16173;SDS011;14031;50.158;8.626;2023-12-22T13:13:56;1.10;;;0.97;;
16173;SDS011;14031;50.158;8.626;2023-12-22T13:16:23;1.50;;;1.10;;
16173;SDS011;14031;50.158;8.626;2023-12-22T13:18:51;6.40;;;1.13;;
16173;SDS011;14031;50.158;8.626;2023-12-22T13:21:19;0.80;;;0.80;;
16173;SDS011;14031;50.158;8.626;2023-12-22T13:23:46;3.03;;;1.20;;
16173;SDS011;14031;50.158;8.626;2023-12-22T13:26:19;1.10;;;1.00;;
16173;SDS011;14031;50.158;8.626;2023-12-22T13:28:46;2.30;;;1.10;;
16173;SDS011;14031;50.158;8.626;2023-12-22T13:31:14;3.70;;;1.20;;
16173;SDS011;14031;50.158;8.626;2023-12-22T13:33:43;1.27;;;1.20;;
16173;SDS011;14031;50.158;8.626;2023-12-22T13:36:10;3.07;;;1.17;;
16173;SDS011;14031;50.158;8.626;2023-12-22T13:38:37;1.10;;;1.00;;
16173;SDS011;14031;50.158;8.626;2023-12-22T13:41:06;1.50;;;1.20;;
16173;SDS011;14031;50.158;8.626;2023-12-22T13:43:34;1.70;;;1.23;;
16173;SDS011;14031;50.158;8.626;2023-12-22T13:46:01;1.40;;;1.00;;
16173;SDS011;14031;50.158;8.626;2023-12-22T13:48:30;0.63;;;0.63;;
16173;SDS011;14031;50.158;8.626;2023-12-22T13:50:57;1.07;;;0.93;;
16173;SDS011;14031;50.158;8.626;2023-12-22T13:53:25;1.20;;;0.80;;
16173;SDS011;14031;50.158;8.626;2023-12-22T13:55:55;4.93;;;0.90;;
16173;SDS011;14031;50.158;8.626;2023-12-22T13:58:21;0.70;;;0.70;;
16173;SDS011;14031;50.158;8.626;2023-12-22T14:00:48;0.83;;;0.80;;
16173;SDS011;14031;50.158;8.626;2023-12-22T14:03:15;0.93;;;0.93;;
16173;SDS011;14031;50.158;8.626;2023-12-22T14:05:43;0.60;;;0.60;;
16173;SDS011;14031;50.158;8.626;2023-12-22T14:08:10;0.60;;;0.50;;
16173;SDS011;14031;50.158;8.626;2023-12-22T14:10:37;0.40;;;0.40;;
16173;SDS011;14031;50.158;8.626;2023-12-22T14:13:10;0.70;;;0.70;;
16173;SDS011;14031;50.158;8.626;2023-12-22T14:15:37;0.90;;;0.90;;
16173;SDS011;14031;50.158;8.626;2023-12-22T14:18:03;0.70;;;0.70;;
16173;SDS011;14031;50.158;8.626;2023-12-22T14:20:30;0.60;;;0.60;;
16173;SDS011;14031;50.158;8.626;2023-12-22T14:22:58;0.70;;;0.70;;
16173;SDS011;14031;50.158;8.626;2023-12-22T14:25:25;0.80;;;0.80;;
16173;SDS011;14031;50.158;8.626;2023-12-22T14:27:52;0.70;;;0.70;;
16173;SDS011;14031;50.158;8.626;2023-12-22T14:30:22;1.07;;;0.80;;
16173;SDS011;14031;50.158;8.626;2023-12-22T14:32:49;0.90;;;0.90;;
16173;SDS011;14031;50.158;8.626;2023-12-22T14:35:15;1.10;;;0.83;;
16173;SDS011;14031;50.158;8.626;2023-12-22T14:37:42;1.23;;;1.20;;
16173;SDS011;14031;50.158;8.626;2023-12-22T14:40:12;2.40;;;0.80;;
16173;SDS011;14031;50.158;8.626;2023-12-22T14:42:39;1.20;;;1.10;;
16173;SDS011;14031;50.158;8.626;2023-12-22T14:45:06;0.97;;;0.97;;
16173;SDS011;14031;50.158;8.626;2023-12-22T14:47:34;1.03;;;0.97;;
16173;SDS011;14031;50.158;8.626;2023-12-22T14:50:01;1.43;;;1.20;;
16173;SDS011;14031;50.158;8.626;2023-12-22T14:52:29;1.10;;;1.10;;
16173;SDS011;14031;50.158;8.626;2023-12-22T14:54:56;1.20;;;1.07;;
16173;SDS011;14031;50.158;8.626;2023-12-22T14:57:25;1.13;;;1.00;;